createdAt,value
2018-04-11T00:01:45.466Z,2.63
2018-04-11T00:04:11.682Z,4.43
2018-04-11T00:06:37.838Z,2.00
2018-04-11T00:09:04.025Z,2.10
2018-04-11T00:11:30.218Z,3.03
2018-04-11T00:13:56.393Z,2.87
2018-04-11T00:16:22.547Z,2.43
2018-04-11T00:18:48.706Z,6.77
2018-04-11T00:21:14.886Z,2.20
2018-04-11T00:23:41.047Z,7.07
2018-04-11T00:26:07.222Z,2.90
2018-04-11T00:28:33.378Z,2.47
2018-04-11T00:30:59.574Z,5.40
2018-04-11T00:33:25.756Z,5.67
2018-04-11T00:35:51.927Z,2.73
2018-04-11T00:38:19.217Z,2.60
2018-04-11T00:40:45.420Z,3.23
2018-04-11T00:43:11.598Z,2.93
2018-04-11T00:45:38.497Z,2.27
2018-04-11T00:48:04.663Z,3.33
2018-04-11T00:50:30.847Z,3.90
2018-04-11T00:53:10.395Z,3.93
2018-04-11T00:55:36.601Z,5.47
2018-04-11T00:58:02.789Z,4.07
2018-04-11T01:00:28.963Z,5.93
2018-04-11T01:02:55.148Z,4.87
2018-04-11T01:05:21.302Z,7.23
2018-04-11T01:07:47.495Z,4.50
2018-04-11T01:10:14.692Z,8.70
2018-04-11T01:12:44.320Z,5.83
2018-04-11T01:15:13.105Z,7.73
2018-04-11T01:17:42.688Z,8.60
2018-04-11T01:20:11.096Z,9.47
2018-04-11T01:22:37.273Z,8.73
2018-04-11T01:25:03.454Z,9.50
2018-04-11T01:27:29.666Z,8.83
2018-04-11T01:29:55.822Z,8.80
2018-04-11T01:32:22.002Z,9.10
2018-04-11T01:34:48.178Z,14.03
2018-04-11T01:37:15.486Z,13.97
2018-04-11T01:39:41.680Z,17.80
2018-04-11T01:42:07.851Z,13.40
2018-04-11T01:44:35.126Z,14.93
2018-04-11T01:47:01.334Z,14.53
2018-04-11T01:49:27.526Z,16.57
2018-04-11T01:51:53.713Z,18.30
2018-04-11T01:54:20.996Z,15.10
2018-04-11T01:56:47.185Z,17.40
2018-04-11T01:59:13.399Z,20.60
2018-04-11T02:01:39.562Z,16.93
2018-04-11T02:04:05.771Z,14.47
2018-04-11T02:06:31.923Z,14.70
2018-04-11T02:08:59.251Z,17.57
2018-04-11T02:11:25.450Z,14.83
2018-04-11T02:13:51.648Z,16.87
2018-04-11T02:16:17.811Z,18.37
2018-04-11T02:18:44.015Z,17.27
2018-04-11T02:21:11.287Z,17.70
2018-04-11T02:23:37.494Z,12.73
2018-04-11T02:26:03.662Z,12.53
2018-04-11T02:28:29.827Z,11.53
2018-04-11T02:30:56.006Z,11.53
2018-04-11T02:33:22.186Z,10.27
2018-04-11T02:35:48.352Z,9.80
2018-04-11T02:38:14.567Z,23.97
2018-04-11T02:40:40.754Z,7.97
2018-04-11T02:43:08.028Z,9.27
2018-04-11T02:45:34.218Z,9.70
2018-04-11T02:48:00.403Z,17.53
2018-04-11T02:50:26.594Z,17.03
2018-04-11T02:52:52.766Z,15.67
2018-04-11T02:55:18.927Z,19.03
2018-04-11T02:57:45.166Z,19.63
2018-04-11T03:00:12.462Z,31.73
2018-04-11T03:02:38.646Z,14.83
2018-04-11T03:05:04.811Z,23.87
2018-04-11T03:07:30.974Z,21.53
2018-04-11T03:09:57.157Z,24.23
2018-04-11T03:12:23.327Z,22.20
2018-04-11T03:14:49.488Z,23.03
2018-04-11T03:17:16.823Z,43.23
2018-04-11T03:19:44.154Z,32.20
2018-04-11T03:22:10.331Z,29.80
2018-04-11T03:24:36.495Z,23.20
2018-04-11T03:27:03.783Z,24.87
2018-04-11T03:29:29.988Z,21.77
2018-04-11T03:31:56.182Z,17.90
2018-04-11T03:34:22.370Z,19.53
2018-04-11T03:36:49.274Z,17.90
2018-04-11T03:39:15.470Z,18.60
2018-04-11T03:41:41.650Z,20.17
2018-04-11T03:44:07.835Z,19.73
2018-04-11T03:46:35.116Z,27.93
2018-04-11T03:49:01.302Z,43.97
2018-04-11T03:51:27.486Z,35.87
2018-04-11T03:53:53.659Z,26.90
2018-04-11T03:56:19.838Z,25.17
2018-04-11T03:58:46.018Z,35.50
2018-04-11T04:01:12.210Z,27.90
2018-04-11T04:03:38.383Z,24.77
2018-04-11T04:06:04.569Z,23.63
2018-04-11T04:08:31.855Z,21.77
2018-04-11T04:10:58.026Z,20.93
2018-04-11T04:13:36.410Z,23.37
2018-04-11T04:16:14.728Z,22.83
2018-04-11T04:18:48.641Z,22.30
2018-04-11T04:21:14.812Z,25.50
2018-04-11T04:23:40.975Z,22.00
2018-04-11T04:26:07.209Z,21.77
2018-04-11T04:28:33.374Z,23.13
2018-04-11T04:30:59.559Z,22.20
2018-04-11T04:33:25.732Z,22.27
2018-04-11T04:35:51.941Z,24.30
2018-04-11T04:38:18.174Z,24.20
2018-04-11T04:40:44.356Z,22.13
2018-04-11T04:43:10.606Z,24.00
2018-04-11T04:45:36.778Z,28.40
2018-04-11T04:48:02.967Z,31.87
2018-04-11T04:50:30.268Z,29.87
2018-04-11T04:52:56.528Z,28.50
2018-04-11T04:55:22.720Z,29.30
2018-04-11T04:57:48.886Z,30.93
2018-04-11T05:00:15.279Z,27.57
2018-04-11T05:02:41.463Z,29.50
2018-04-11T05:05:07.706Z,29.27
2018-04-11T05:07:33.877Z,27.07
2018-04-11T05:10:01.367Z,32.37
2018-04-11T05:12:27.547Z,33.63
2018-04-11T05:14:53.719Z,24.90
2018-04-11T05:17:19.926Z,26.30
2018-04-11T05:19:46.583Z,24.43
2018-04-11T05:22:12.794Z,24.20
2018-04-11T05:24:39.008Z,26.07
2018-04-11T05:27:05.174Z,26.97
2018-04-11T05:29:31.354Z,29.73
2018-04-11T05:31:57.579Z,29.63
2018-04-11T05:34:24.869Z,25.50
2018-04-11T05:36:51.050Z,29.83
2018-04-11T05:39:17.319Z,25.70
2018-04-11T05:41:43.520Z,25.47
2018-04-11T05:44:09.706Z,26.37
2018-04-11T05:46:35.859Z,25.73
2018-04-11T05:49:02.051Z,24.67
2018-04-11T05:51:28.214Z,25.60
2018-04-11T05:53:55.577Z,24.53
2018-04-11T05:56:21.975Z,26.87
2018-04-11T05:58:48.283Z,32.77
2018-04-11T06:01:14.779Z,30.43
2018-04-11T06:03:43.210Z,22.57
2018-04-11T06:06:10.574Z,25.33
2018-04-11T06:08:39.877Z,30.57
2018-04-11T06:11:06.324Z,22.83
2018-04-11T06:13:32.824Z,23.67
2018-04-11T06:15:59.510Z,26.47
2018-04-11T06:18:26.323Z,25.80
2018-04-11T06:20:52.584Z,24.30
2018-04-11T06:23:18.772Z,22.40
2018-04-11T06:25:44.953Z,23.33
2018-04-11T06:28:11.147Z,25.77
2018-04-11T06:30:37.310Z,24.50
2018-04-11T06:33:03.471Z,24.03
2018-04-11T06:35:29.659Z,26.07
2018-04-11T06:37:55.830Z,27.13
2018-04-11T06:40:22.035Z,31.53
2018-04-11T06:42:48.210Z,23.27
2018-04-11T06:45:15.500Z,22.87
2018-04-11T06:47:41.700Z,21.73
2018-04-11T06:50:07.875Z,25.87
2018-04-11T06:52:35.216Z,24.20
2018-04-11T06:55:02.134Z,20.37
2018-04-11T06:57:28.351Z,22.60
2018-04-11T06:59:55.691Z,21.00
2018-04-11T07:02:22.964Z,22.10
2018-04-11T07:04:49.430Z,23.30
2018-04-11T07:07:15.639Z,18.93
2018-04-11T07:09:41.810Z,25.13
2018-04-11T07:12:07.993Z,19.37
2018-04-11T07:14:35.411Z,21.07
2018-04-11T07:17:01.652Z,27.37
2018-04-11T07:19:29.669Z,22.13
2018-04-11T07:21:57.228Z,18.90
2018-04-11T07:24:23.407Z,20.07
2018-04-11T07:26:49.578Z,17.07
2018-04-11T07:29:16.886Z,17.77
2018-04-11T07:31:43.104Z,21.33
2018-04-11T07:34:09.366Z,20.73
2018-04-11T07:36:35.535Z,18.53
2018-04-11T07:39:01.755Z,17.63
2018-04-11T07:41:27.920Z,22.43
2018-04-11T07:43:54.107Z,16.63
2018-04-11T07:46:20.276Z,16.50
2018-04-11T07:48:46.563Z,15.03
2018-04-11T07:51:12.770Z,19.67
2018-04-11T07:53:38.943Z,19.60
2018-04-11T07:56:05.122Z,17.67
2018-04-11T07:58:31.310Z,17.10
2018-04-11T08:00:57.537Z,15.13
2018-04-11T08:03:23.754Z,16.77
2018-04-11T08:05:49.941Z,15.03
2018-04-11T08:08:16.148Z,15.23
2018-04-11T08:10:42.367Z,14.20
2018-04-11T08:13:08.571Z,13.40
2018-04-11T08:15:34.740Z,13.13
2018-04-11T08:18:00.955Z,13.23
2018-04-11T08:20:27.142Z,13.00
2018-04-11T08:22:53.330Z,12.47
2018-04-11T08:25:19.515Z,14.20
2018-04-11T08:27:45.760Z,12.90
2018-04-11T08:30:11.942Z,12.83
2018-04-11T08:32:38.137Z,12.20
2018-04-11T08:35:04.338Z,12.30
2018-04-11T08:37:30.513Z,13.30
2018-04-11T08:39:56.707Z,14.77
2018-04-11T08:42:22.899Z,12.83
2018-04-11T08:44:49.078Z,11.30
2018-04-11T08:47:15.294Z,12.17
2018-04-11T08:49:41.475Z,11.93
2018-04-11T08:52:07.650Z,11.63
2018-04-11T08:54:33.822Z,10.97
2018-04-11T08:57:00.011Z,12.57
2018-04-11T08:59:26.178Z,11.33
2018-04-11T09:01:52.379Z,12.33
2018-04-11T09:04:18.547Z,12.03
2018-04-11T09:06:44.758Z,16.73
2018-04-11T09:09:10.908Z,14.20
2018-04-11T09:11:37.086Z,12.57
2018-04-11T09:14:03.270Z,11.77
2018-04-11T09:16:29.527Z,11.10
2018-04-11T09:18:55.711Z,10.87
2018-04-11T09:21:23.592Z,11.30
2018-04-11T09:23:49.774Z,11.02
2018-04-11T09:26:17.058Z,12.30
2018-04-11T09:28:43.285Z,9.02
2018-04-11T09:31:09.467Z,9.25
2018-04-11T09:33:35.698Z,8.85
2018-04-11T09:36:01.967Z,8.70
2018-04-11T09:38:29.263Z,10.57
2018-04-11T09:40:55.447Z,8.30
2018-04-11T09:43:21.598Z,9.35
2018-04-11T09:45:47.825Z,7.07
2018-04-11T09:48:14.030Z,9.05
2018-04-11T09:50:40.214Z,6.80
2018-04-11T09:53:06.394Z,8.30
2018-04-11T09:55:32.627Z,7.18
2018-04-11T09:57:58.787Z,7.35
2018-04-11T10:00:24.980Z,5.65
2018-04-11T10:02:57.172Z,8.63
2018-04-11T10:05:24.452Z,6.75
2018-04-11T10:07:50.643Z,4.68
2018-04-11T10:10:17.639Z,6.68
2018-04-11T10:12:45.406Z,4.97
2018-04-11T10:15:11.631Z,5.82
2018-04-11T10:17:38.906Z,5.40
2018-04-11T10:20:05.087Z,5.72
2018-04-11T10:22:31.296Z,5.50
2018-04-11T10:24:57.474Z,6.43
2018-04-11T10:27:23.650Z,4.65
2018-04-11T10:29:49.814Z,4.55
2018-04-11T10:32:16.015Z,4.32
2018-04-11T10:34:42.197Z,5.28
2018-04-11T10:37:08.382Z,4.65
2018-04-11T10:39:34.567Z,5.30
2018-04-11T10:42:00.760Z,4.70
2018-04-11T10:44:26.940Z,3.42
2018-04-11T10:46:53.136Z,4.00
2018-04-11T10:49:19.352Z,4.45
2018-04-11T10:51:45.526Z,3.97
2018-04-11T10:54:11.706Z,5.20
2018-04-11T10:56:37.893Z,3.00
2018-04-11T10:59:04.062Z,2.58
2018-04-11T11:01:30.243Z,3.35
2018-04-11T11:03:56.399Z,2.05
2018-04-11T11:06:23.300Z,4.12
2018-04-11T11:08:49.474Z,2.92
2018-04-11T11:11:15.655Z,3.87
2018-04-11T11:13:41.835Z,1.60
2018-04-11T11:16:07.998Z,1.23
2018-04-11T11:18:34.173Z,1.55
2018-04-11T11:21:00.346Z,1.80
2018-04-11T11:23:26.503Z,4.25
2018-04-11T11:25:53.498Z,1.23
2018-04-11T11:28:19.703Z,2.30
2018-04-11T11:30:46.791Z,5.00
2018-04-11T11:33:13.017Z,1.77
2018-04-11T11:35:40.838Z,1.45
2018-04-11T11:38:07.019Z,1.40
2018-04-11T11:40:33.268Z,1.70
2018-04-11T11:42:59.512Z,2.72
2018-04-11T11:45:25.648Z,1.37
2018-04-11T11:47:51.859Z,3.05
2018-04-11T11:50:18.046Z,2.55
2018-04-11T11:52:45.034Z,3.70
2018-04-11T11:55:11.201Z,1.77
2018-04-11T11:57:38.107Z,0.90
2018-04-11T12:00:04.341Z,2.78
2018-04-11T12:02:31.268Z,1.50
2018-04-11T12:04:58.267Z,3.42
2018-04-11T12:07:24.440Z,2.28
2018-04-11T12:09:50.594Z,2.45
2018-04-11T12:12:16.818Z,0.45
2018-04-11T12:14:43.026Z,0.90
2018-04-11T12:17:09.211Z,0.80
2018-04-11T12:19:35.382Z,9.38
2018-04-11T12:22:01.595Z,11.40
2018-04-11T12:24:28.514Z,4.32
2018-04-11T12:26:55.531Z,2.55
2018-04-11T12:29:21.711Z,1.50
2018-04-11T12:31:47.974Z,2.37
2018-04-11T12:34:14.918Z,1.50
2018-04-11T12:36:41.833Z,0.85
2018-04-11T12:39:10.233Z,2.97
2018-04-11T12:41:36.429Z,1.50
2018-04-11T12:44:02.638Z,0.70
2018-04-11T12:46:29.573Z,0.68
2018-04-11T12:48:55.766Z,3.40
2018-04-11T12:51:22.713Z,4.57
2018-04-11T12:53:49.679Z,0.75
2018-04-11T12:56:15.907Z,1.70
2018-04-11T12:58:42.070Z,2.67
2018-04-11T13:01:08.279Z,1.23
2018-04-11T13:03:35.200Z,0.45
2018-04-11T13:06:02.165Z,0.62
2018-04-11T13:08:28.341Z,0.40
2018-04-11T13:10:54.511Z,0.70
2018-04-11T13:13:20.707Z,1.37
2018-04-11T13:15:46.914Z,0.43
2018-04-11T13:18:13.628Z,0.37
2018-04-11T13:20:39.785Z,2.28
2018-04-11T13:23:05.966Z,1.45
2018-04-11T13:25:32.164Z,0.93
2018-04-11T13:27:59.107Z,0.70
2018-04-11T13:30:25.399Z,0.37
2018-04-11T13:32:52.858Z,0.60
2018-04-11T13:35:19.071Z,2.83
2018-04-11T13:37:45.331Z,2.28
2018-04-11T13:40:11.554Z,2.60
2018-04-11T13:42:37.846Z,0.85
2018-04-11T13:45:04.075Z,0.98
2018-04-11T13:47:30.292Z,0.62
2018-04-11T13:49:56.477Z,0.45
2018-04-11T13:52:22.654Z,0.50
2018-04-11T13:54:49.575Z,0.30
2018-04-11T13:57:16.510Z,0.68
2018-04-11T13:59:44.501Z,0.55
2018-04-11T14:02:10.703Z,0.57
2018-04-11T14:04:36.924Z,2.17
2018-04-11T14:07:03.084Z,0.85
2018-04-11T14:09:29.306Z,0.30
2018-04-11T14:11:56.229Z,0.30
2018-04-11T14:14:22.405Z,0.57
2018-04-11T14:16:48.587Z,2.47
2018-04-11T14:19:15.531Z,2.22
2018-04-11T14:21:41.718Z,2.05
2018-04-11T14:24:08.733Z,0.90
2018-04-11T14:26:34.891Z,0.88
2018-04-11T14:29:01.155Z,1.92
2018-04-11T14:31:27.362Z,1.50
2018-04-11T14:33:53.580Z,2.03
2018-04-11T14:36:19.802Z,0.98
2018-04-11T14:38:46.053Z,1.58
2018-04-11T14:41:12.270Z,0.88
2018-04-11T14:43:38.444Z,0.50
2018-04-11T14:46:04.642Z,2.20
2018-04-11T14:48:30.844Z,1.98
2018-04-11T14:50:57.035Z,1.15
2018-04-11T14:53:23.254Z,0.85
2018-04-11T14:55:49.418Z,1.15
2018-04-11T14:58:15.604Z,3.17
2018-04-11T15:00:41.791Z,1.33
2018-04-11T15:03:07.946Z,2.42
2018-04-11T15:05:34.110Z,2.85
2018-04-11T15:08:00.303Z,4.15
2018-04-11T15:10:26.474Z,7.22
2018-04-11T15:12:52.670Z,5.25
2018-04-11T15:15:18.855Z,4.57
2018-04-11T15:17:45.078Z,3.37
2018-04-11T15:20:11.290Z,4.68
2018-04-11T15:22:37.466Z,7.20
2018-04-11T15:25:04.362Z,3.67
2018-04-11T15:27:30.694Z,3.55
2018-04-11T15:29:56.772Z,4.00
2018-04-11T15:32:22.959Z,4.40
2018-04-11T15:34:49.138Z,4.50
2018-04-11T15:37:15.319Z,4.32
2018-04-11T15:39:41.494Z,3.05
2018-04-11T15:42:07.686Z,4.10
2018-04-11T15:44:34.663Z,3.37
2018-04-11T15:47:00.847Z,6.28
2018-04-11T15:49:27.099Z,3.22
2018-04-11T15:51:53.239Z,3.83
2018-04-11T15:54:19.441Z,3.42
2018-04-11T15:56:45.648Z,2.78
2018-04-11T15:59:11.836Z,2.60
2018-04-11T16:01:38.026Z,3.03
2018-04-11T16:04:05.348Z,2.37
2018-04-11T16:06:32.838Z,2.80
2018-04-11T16:08:59.006Z,2.55
2018-04-11T16:11:26.913Z,2.25
2018-04-11T16:13:53.230Z,3.72
2018-04-11T16:16:20.176Z,7.80
2018-04-11T16:18:47.543Z,3.08
2018-04-11T16:21:14.856Z,2.65
2018-04-11T16:23:41.010Z,3.37
2018-04-11T16:26:07.926Z,2.72
2018-04-11T16:28:34.883Z,3.03
2018-04-11T16:31:01.288Z,2.53
2018-04-11T16:33:28.941Z,2.40
2018-04-11T16:35:55.104Z,4.10
2018-04-11T16:38:21.265Z,5.55
2018-04-11T16:41:06.901Z,3.17
2018-04-11T16:43:35.663Z,6.85
2018-04-11T16:46:13.022Z,2.45
2018-04-11T16:48:39.431Z,3.80
2018-04-11T16:51:10.912Z,2.47
2018-04-11T16:53:39.191Z,2.65
2018-04-11T16:56:17.002Z,2.62
2018-04-11T16:58:43.243Z,1.87
2018-04-11T17:01:09.421Z,2.20
2018-04-11T17:03:35.630Z,3.05
2018-04-11T17:06:01.818Z,2.08
2018-04-11T17:08:29.099Z,7.15
2018-04-11T17:10:55.321Z,1.50
2018-04-11T17:13:21.484Z,3.22
2018-04-11T17:15:48.791Z,1.92
2018-04-11T17:18:14.995Z,1.23
2018-04-11T17:20:53.495Z,2.72
2018-04-11T17:23:31.912Z,1.73
2018-04-11T17:26:10.325Z,1.17
2018-04-11T17:28:48.838Z,1.70
2018-04-11T17:31:32.907Z,1.48
2018-04-11T17:33:59.127Z,2.20
2018-04-11T17:36:25.369Z,6.07
2018-04-11T17:38:51.665Z,4.10
2018-04-11T17:41:17.898Z,3.80
2018-04-11T17:43:44.547Z,3.37
2018-04-11T17:46:10.758Z,2.95
2018-04-11T17:48:38.052Z,2.05
2018-04-11T17:51:04.271Z,2.22
2018-04-11T17:53:30.576Z,1.67
2018-04-11T17:55:56.839Z,3.45
2018-04-11T17:58:23.604Z,2.42
2018-04-11T18:00:53.418Z,1.70
2018-04-11T18:03:19.885Z,3.35
2018-04-11T18:05:46.114Z,2.97
2018-04-11T18:08:12.580Z,1.95
2018-04-11T18:10:38.780Z,3.10
2018-04-11T18:13:04.962Z,3.17
2018-04-11T18:15:31.263Z,3.35
2018-04-11T18:17:58.687Z,2.58
2018-04-11T18:20:26.077Z,4.28
2018-04-11T18:22:52.322Z,2.70
2018-04-11T18:25:18.549Z,3.25
2018-04-11T18:27:44.968Z,3.25
2018-04-11T18:30:12.275Z,7.12
2018-04-11T18:32:38.483Z,2.03
2018-04-11T18:35:04.694Z,3.75
2018-04-11T18:37:30.853Z,4.43
2018-04-11T18:39:57.067Z,2.83
2018-04-11T18:42:23.259Z,3.00
2018-04-11T18:44:49.444Z,2.05
2018-04-11T18:47:15.694Z,1.67
2018-04-11T18:49:41.860Z,4.60
2018-04-11T18:52:08.208Z,2.47
2018-04-11T18:54:34.389Z,3.90
2018-04-11T18:57:00.599Z,2.00
2018-04-11T18:59:26.770Z,6.87
2018-04-11T19:01:52.939Z,2.80
2018-04-11T19:04:19.127Z,6.70
2018-04-11T19:06:46.421Z,3.08
2018-04-11T19:09:12.615Z,7.10
2018-04-11T19:11:38.804Z,4.45
2018-04-11T19:14:04.966Z,5.80
2018-04-11T19:16:31.382Z,5.35
2018-04-11T19:18:57.908Z,5.32
2018-04-11T19:21:24.131Z,4.53
2018-04-11T19:23:50.298Z,9.80
2018-04-11T19:26:16.519Z,5.95
2018-04-11T19:28:43.817Z,9.20
2018-04-11T19:31:10.240Z,7.75
2018-04-11T19:33:36.447Z,3.22
2018-04-11T19:36:03.790Z,4.95
2018-04-11T19:38:29.994Z,2.05
2018-04-11T19:40:57.299Z,4.85
2018-04-11T19:43:23.517Z,5.68
2018-04-11T19:45:49.934Z,9.25
2018-04-11T19:48:16.964Z,3.40
2018-04-11T19:50:43.600Z,4.65
2018-04-11T19:53:09.929Z,6.10
2018-04-11T19:55:36.590Z,2.90
2018-04-11T19:58:02.888Z,2.40
2018-04-11T20:00:29.100Z,4.10
2018-04-11T20:02:55.518Z,3.15
2018-04-11T20:05:21.758Z,2.67
2018-04-11T20:07:47.956Z,4.05
2018-04-11T20:10:14.186Z,2.92
2018-04-11T20:12:40.397Z,2.60
2018-04-11T20:15:06.671Z,5.55
2018-04-11T20:17:33.614Z,2.62
2018-04-11T20:20:01.290Z,2.72
2018-04-11T20:22:27.518Z,7.23
2018-04-11T20:24:53.940Z,5.68
2018-04-11T20:27:20.163Z,2.17
2018-04-11T20:29:46.689Z,2.13
2018-04-11T20:32:13.045Z,2.72
2018-04-11T20:34:39.467Z,2.03
2018-04-11T20:37:06.854Z,4.80
2018-04-11T20:39:33.310Z,3.50
2018-04-11T20:41:59.567Z,2.12
2018-04-11T20:44:25.808Z,2.80
2018-04-11T20:46:52.030Z,3.20
2018-04-11T20:49:18.311Z,2.23
2018-04-11T20:51:44.565Z,2.10
2018-04-11T20:54:10.804Z,2.57
2018-04-11T20:56:38.095Z,3.03
2018-04-11T20:59:04.310Z,5.43
2018-04-11T21:01:30.495Z,4.43
2018-04-11T21:03:56.879Z,3.33
2018-04-11T21:06:23.096Z,3.97
2018-04-11T21:08:51.595Z,1.75
2018-04-11T21:11:17.931Z,2.27
2018-04-11T21:13:44.539Z,2.00
2018-04-11T21:16:10.703Z,2.23
2018-04-11T21:18:36.886Z,3.30
2018-04-11T21:21:03.512Z,2.03
2018-04-11T21:23:29.711Z,5.10
2018-04-11T21:25:55.887Z,2.13
2018-04-11T21:28:23.185Z,5.03
2018-04-11T21:30:49.357Z,5.00
2018-04-11T21:33:15.570Z,3.23
2018-04-11T21:35:41.891Z,2.60
2018-04-11T21:38:08.081Z,2.60
2018-04-11T21:40:35.364Z,2.27
2018-04-11T21:43:01.530Z,1.90
2018-04-11T21:45:28.799Z,3.23
2018-04-11T21:47:54.982Z,5.53
2018-04-11T21:50:21.158Z,6.93
2018-04-11T21:52:47.414Z,2.83
2018-04-11T21:55:13.625Z,2.70
2018-04-11T21:57:39.815Z,1.67
2018-04-11T22:00:06.014Z,2.17
2018-04-11T22:02:32.213Z,1.90
2018-04-11T22:04:58.371Z,4.73
2018-04-11T22:07:26.385Z,2.13
2018-04-11T22:09:52.520Z,2.00
2018-04-11T22:12:21.166Z,7.27
2018-04-11T22:14:47.354Z,2.63
2018-04-11T22:17:13.603Z,2.03
2018-04-11T22:19:39.778Z,6.40
2018-04-11T22:22:05.943Z,2.23
2018-04-11T22:24:32.164Z,2.50
2018-04-11T22:26:58.427Z,2.87
2018-04-11T22:29:24.602Z,4.47
2018-04-11T22:31:50.769Z,4.47
2018-04-11T22:34:16.972Z,7.30
2018-04-11T22:36:43.165Z,4.70
2018-04-11T22:39:09.366Z,5.20
2018-04-11T22:41:36.286Z,8.03
2018-04-11T22:44:02.450Z,5.40
2018-04-11T22:46:28.616Z,9.20
2018-04-11T22:48:55.918Z,2.13
2018-04-11T22:51:22.192Z,2.57
2018-04-11T22:53:48.436Z,2.57
2018-04-11T22:56:14.687Z,3.60
2018-04-11T22:58:40.875Z,3.07
2018-04-11T23:01:07.324Z,5.97
2018-04-11T23:03:33.519Z,2.90
2018-04-11T23:05:59.804Z,3.23
2018-04-11T23:08:25.990Z,3.07
2018-04-11T23:10:52.246Z,3.40
2018-04-11T23:13:18.439Z,3.57
2018-04-11T23:15:44.651Z,3.70
2018-04-11T23:18:10.865Z,3.17
2018-04-11T23:20:37.079Z,4.10
2018-04-11T23:23:03.234Z,3.97
2018-04-11T23:25:29.698Z,3.70
2018-04-11T23:27:55.877Z,4.40
2018-04-11T23:30:23.150Z,8.97
2018-04-11T23:32:49.353Z,5.17
2018-04-11T23:35:15.551Z,4.27
2018-04-11T23:37:41.734Z,5.93
2018-04-11T23:40:07.892Z,5.33
2018-04-11T23:42:34.063Z,5.57
2018-04-11T23:45:00.226Z,4.67
2018-04-11T23:47:26.391Z,4.57
2018-04-11T23:49:52.574Z,5.77
2018-04-11T23:52:18.753Z,5.20
2018-04-11T23:54:44.962Z,4.77
2018-04-11T23:57:11.142Z,7.13
2018-04-11T23:59:37.331Z,5.20
